createdAt,value
2023-03-24T00:01:08.389Z,63.00
2023-03-24T00:03:36.481Z,63.26
2023-03-24T00:06:05.747Z,62.72
2023-03-24T00:08:37.007Z,62.84
2023-03-24T00:11:11.635Z,63.03
2023-03-24T00:13:39.962Z,63.10
2023-03-24T00:16:12.563Z,63.46
2023-03-24T00:18:40.369Z,63.16
2023-03-24T00:21:08.870Z,63.20
2023-03-24T00:23:36.128Z,63.40
2023-03-24T00:26:08.888Z,63.41
2023-03-24T00:28:37.220Z,63.88
2023-03-24T00:31:06.542Z,63.98
2023-03-24T00:33:34.951Z,63.79
2023-03-24T00:36:06.793Z,63.80
2023-03-24T00:38:34.829Z,64.00
2023-03-24T00:41:02.242Z,64.17
2023-03-24T00:43:30.027Z,63.42
2023-03-24T00:46:03.973Z,63.83
2023-03-24T00:48:34.971Z,63.58
2023-03-24T00:51:02.960Z,63.68
2023-03-24T00:53:30.289Z,63.63
2023-03-24T00:55:58.482Z,63.98
2023-03-24T00:58:25.928Z,64.14
2023-03-24T01:00:57.302Z,64.61
2023-03-24T01:03:27.270Z,64.01
2023-03-24T01:05:57.490Z,63.95
2023-03-24T01:08:25.588Z,64.74
2023-03-24T01:10:53.371Z,64.46
2023-03-24T01:13:29.506Z,64.56
2023-03-24T01:15:57.531Z,64.83
2023-03-24T01:18:24.701Z,64.79
2023-03-24T01:20:53.322Z,64.92
2023-03-24T01:23:24.113Z,64.54
2023-03-24T01:25:51.746Z,64.59
2023-03-24T01:28:24.923Z,64.74
2023-03-24T01:30:54.214Z,64.91
2023-03-24T01:33:22.159Z,65.05
2023-03-24T01:35:49.951Z,65.42
2023-03-24T01:38:17.343Z,65.35
2023-03-24T01:40:47.351Z,64.81
2023-03-24T01:43:27.040Z,64.56
2023-03-24T01:46:19.737Z,65.14
2023-03-24T01:49:02.503Z,65.36
2023-03-24T01:51:40.786Z,65.41
2023-03-24T01:54:18.785Z,65.00
2023-03-24T01:56:56.344Z,64.46
2023-03-24T01:59:30.164Z,64.66
2023-03-24T02:02:18.344Z,64.11
2023-03-24T02:04:58.529Z,64.02
2023-03-24T02:07:58.850Z,63.92
2023-03-24T02:10:26.834Z,63.78
2023-03-24T02:12:53.783Z,63.97
2023-03-24T02:15:21.020Z,63.78
2023-03-24T02:18:29.155Z,63.40
2023-03-24T02:21:51.476Z,63.13
2023-03-24T02:25:14.147Z,63.41
2023-03-24T02:28:19.898Z,63.12
2023-03-24T02:31:28.114Z,63.23
2023-03-24T02:34:31.186Z,63.70
2023-03-24T02:37:48.156Z,63.11
2023-03-24T02:40:40.961Z,62.92
2023-03-24T02:44:04.197Z,62.89
2023-03-24T02:47:00.367Z,63.32
2023-03-24T02:49:54.098Z,63.19
2023-03-24T02:52:38.289Z,62.91
2023-03-24T02:55:27.940Z,63.02
2023-03-24T02:58:05.121Z,62.79
2023-03-24T03:01:18.257Z,63.10
2023-03-24T03:04:17.618Z,63.25
2023-03-24T03:06:52.381Z,62.74
2023-03-24T03:09:21.548Z,62.68
2023-03-24T03:11:54.513Z,62.48
2023-03-24T03:14:35.234Z,62.59
2023-03-24T03:17:14.617Z,62.51
2023-03-24T03:19:50.255Z,62.65
2023-03-24T03:22:24.556Z,62.67
2023-03-24T03:24:54.260Z,62.78
2023-03-24T03:27:29.010Z,62.63
2023-03-24T03:30:03.160Z,62.69
2023-03-24T03:32:39.674Z,62.67
2023-03-24T03:35:19.764Z,62.67
2023-03-24T03:38:03.242Z,62.75
2023-03-24T03:40:36.620Z,62.77
2023-03-24T03:43:11.728Z,62.57
2023-03-24T03:45:38.832Z,62.68
2023-03-24T03:48:06.446Z,63.24
2023-03-24T03:50:34.411Z,62.88
2023-03-24T03:53:07.276Z,62.72
2023-03-24T03:55:35.384Z,62.73
2023-03-24T03:58:04.634Z,62.85
2023-03-24T04:00:38.134Z,62.64
2023-03-24T04:03:45.007Z,62.68
2023-03-24T04:06:27.695Z,62.96
2023-03-24T04:09:29.880Z,62.75
2023-03-24T04:12:11.053Z,62.87
2023-03-24T04:15:26.592Z,63.08
2023-03-24T04:18:43.973Z,63.00
2023-03-24T04:21:28.237Z,62.98
2023-03-24T04:24:27.454Z,63.14
2023-03-24T04:27:11.286Z,63.14
2023-03-24T04:30:08.208Z,63.18
2023-03-24T04:33:08.519Z,63.54
2023-03-24T04:35:45.125Z,63.70
2023-03-24T04:38:25.552Z,64.64
2023-03-24T04:41:07.994Z,65.42
2023-03-24T04:43:38.766Z,65.52
2023-03-24T04:46:09.566Z,65.77
2023-03-24T04:48:49.754Z,65.95
2023-03-24T04:51:48.923Z,65.61
2023-03-24T04:54:21.726Z,65.52
2023-03-24T04:56:58.248Z,65.42
2023-03-24T04:59:33.854Z,65.66
2023-03-24T05:02:03.337Z,65.82
2023-03-24T05:04:30.826Z,66.00
2023-03-24T05:07:07.865Z,66.32
2023-03-24T05:09:34.914Z,66.62
2023-03-24T05:12:02.809Z,66.12
2023-03-24T05:14:36.346Z,66.27
2023-03-24T05:17:05.151Z,67.27
2023-03-24T05:19:32.694Z,67.63
2023-03-24T05:21:59.934Z,67.07
2023-03-24T05:24:27.123Z,67.06
2023-03-24T05:26:54.067Z,67.87
2023-03-24T05:29:20.998Z,68.90
2023-03-24T05:31:48.467Z,70.53
2023-03-24T05:34:22.614Z,70.83
2023-03-24T05:37:02.644Z,69.94
2023-03-24T05:39:29.652Z,70.92
2023-03-24T05:42:07.531Z,71.26
2023-03-24T05:44:34.522Z,73.49
2023-03-24T05:47:07.707Z,72.00
2023-03-24T05:49:35.151Z,72.88
2023-03-24T05:52:02.277Z,72.22
2023-03-24T05:54:29.884Z,72.58
2023-03-24T05:57:09.597Z,72.08
2023-03-24T05:59:59.384Z,71.07
2023-03-24T06:02:46.421Z,75.87
2023-03-24T06:05:27.287Z,72.62
2023-03-24T06:07:58.761Z,72.22
2023-03-24T06:10:29.251Z,76.69
2023-03-24T06:12:57.628Z,74.14
2023-03-24T06:15:27.761Z,73.89
2023-03-24T06:18:00.914Z,75.94
2023-03-24T06:20:33.830Z,75.02
2023-03-24T06:23:08.441Z,73.62
2023-03-24T06:25:47.552Z,74.36
2023-03-24T06:28:22.746Z,76.04
2023-03-24T06:30:50.678Z,75.65
2023-03-24T06:33:25.823Z,76.43
2023-03-24T06:35:54.012Z,75.53
2023-03-24T06:38:22.167Z,76.42
2023-03-24T06:40:49.360Z,77.92
2023-03-24T06:43:17.640Z,75.73
2023-03-24T06:45:45.779Z,77.27
2023-03-24T06:48:19.364Z,75.46
2023-03-24T06:50:46.804Z,75.48
2023-03-24T06:53:14.309Z,74.37
2023-03-24T06:55:41.457Z,74.28
2023-03-24T06:58:10.281Z,74.21
2023-03-24T07:00:55.232Z,76.66
2023-03-24T07:03:33.146Z,75.89
2023-03-24T07:06:20.583Z,75.41
2023-03-24T07:08:52.182Z,75.60
2023-03-24T07:11:20.839Z,75.91
2023-03-24T07:13:52.143Z,75.40
2023-03-24T07:16:19.302Z,75.42
2023-03-24T07:18:49.823Z,74.94
2023-03-24T07:21:16.965Z,75.21
2023-03-24T07:23:44.904Z,75.36
2023-03-24T07:26:15.855Z,75.28
2023-03-24T07:28:49.303Z,76.95
2023-03-24T07:31:37.610Z,75.97
2023-03-24T07:34:08.231Z,76.03
2023-03-24T07:36:37.323Z,75.83
2023-03-24T07:39:06.944Z,76.79
2023-03-24T07:41:35.661Z,76.66
2023-03-24T07:44:08.527Z,77.48
2023-03-24T07:46:40.868Z,77.33
2023-03-24T07:49:18.107Z,77.13
2023-03-24T07:51:51.479Z,77.79
2023-03-24T07:54:29.730Z,77.00
2023-03-24T07:56:56.775Z,76.90
2023-03-24T07:59:25.941Z,78.08
2023-03-24T08:01:56.978Z,78.08
2023-03-24T08:04:44.794Z,78.34
2023-03-24T08:07:28.042Z,78.33
2023-03-24T08:09:54.992Z,77.50
2023-03-24T08:12:21.929Z,79.86
2023-03-24T08:14:49.111Z,79.03
2023-03-24T08:17:16.266Z,77.31
2023-03-24T08:19:58.199Z,78.24
2023-03-24T08:22:28.015Z,78.00
2023-03-24T08:24:54.931Z,77.69
2023-03-24T08:27:21.915Z,77.99
2023-03-24T08:29:48.896Z,77.80
2023-03-24T08:32:15.914Z,78.46
2023-03-24T08:34:42.992Z,78.73
2023-03-24T08:37:11.782Z,79.30
2023-03-24T08:39:38.739Z,77.79
2023-03-24T08:42:05.885Z,79.00
2023-03-24T08:44:33.078Z,78.62
2023-03-24T08:47:03.384Z,78.81
2023-03-24T08:49:30.531Z,78.11
2023-03-24T08:51:57.463Z,77.86
2023-03-24T08:54:24.719Z,77.40
2023-03-24T08:56:51.747Z,78.19
2023-03-24T08:59:18.849Z,77.32
2023-03-24T09:01:45.870Z,77.75
2023-03-24T09:04:12.964Z,77.15
2023-03-24T09:06:40.022Z,76.91
2023-03-24T09:09:07.525Z,79.09
2023-03-24T09:11:35.075Z,77.91
2023-03-24T09:14:03.276Z,78.24
2023-03-24T09:16:30.599Z,77.59
2023-03-24T09:18:57.623Z,78.41
2023-03-24T09:21:24.572Z,78.51
2023-03-24T09:23:51.558Z,78.27
2023-03-24T09:26:18.508Z,78.60
2023-03-24T09:28:45.493Z,78.49
2023-03-24T09:31:12.520Z,78.36
2023-03-24T09:33:39.850Z,78.55
2023-03-24T09:36:07.603Z,77.57
2023-03-24T09:38:34.971Z,77.09
2023-03-24T09:41:03.579Z,77.86
2023-03-24T09:43:50.556Z,77.56
2023-03-24T09:46:43.197Z,78.23
2023-03-24T09:49:23.376Z,77.68
2023-03-24T09:51:56.373Z,77.38
2023-03-24T09:54:55.368Z,77.57
2023-03-24T09:57:37.222Z,79.42
2023-03-24T10:00:30.736Z,78.12
2023-03-24T10:03:15.640Z,79.36
2023-03-24T10:05:58.232Z,79.48
2023-03-24T10:08:35.182Z,80.38
2023-03-24T10:11:22.202Z,79.22
2023-03-24T10:14:15.160Z,78.64
2023-03-24T10:16:54.273Z,79.41
2023-03-24T10:19:43.452Z,79.46
2023-03-24T10:22:22.492Z,79.36
2023-03-24T10:25:08.608Z,79.79
2023-03-24T10:27:58.484Z,79.86
2023-03-24T10:30:34.216Z,80.07
2023-03-24T10:33:01.364Z,79.99
2023-03-24T10:35:41.689Z,80.20
2023-03-24T10:38:21.415Z,80.49
2023-03-24T10:40:49.768Z,79.71
2023-03-24T10:43:18.938Z,80.35
2023-03-24T10:45:52.991Z,79.39
2023-03-24T10:48:49.667Z,80.68
2023-03-24T10:51:34.899Z,80.89
2023-03-24T10:54:19.815Z,80.60
2023-03-24T10:57:17.666Z,81.51
2023-03-24T11:00:09.753Z,81.39
2023-03-24T11:02:37.907Z,80.37
2023-03-24T11:05:20.180Z,81.56
2023-03-24T11:07:51.003Z,81.94
2023-03-24T11:10:24.088Z,81.36
2023-03-24T11:13:03.970Z,81.41
2023-03-24T11:15:37.242Z,82.35
2023-03-24T11:18:15.508Z,81.48
2023-03-24T11:20:56.492Z,81.45
2023-03-24T11:23:31.677Z,81.40
2023-03-24T11:26:18.700Z,82.96
2023-03-24T11:28:57.833Z,82.50
2023-03-24T11:31:38.144Z,81.79
2023-03-24T11:34:24.248Z,81.64
2023-03-24T11:37:11.222Z,82.54
2023-03-24T11:39:38.180Z,81.74
2023-03-24T11:42:16.999Z,80.12
2023-03-24T11:44:55.316Z,80.12
2023-03-24T11:47:36.614Z,79.77
2023-03-24T11:50:28.640Z,79.51
2023-03-24T11:53:13.472Z,79.16
2023-03-24T11:56:11.967Z,79.21
2023-03-24T11:58:48.524Z,79.45
2023-03-24T12:01:21.290Z,79.64
2023-03-24T12:04:18.106Z,78.87
2023-03-24T12:07:00.439Z,78.87
2023-03-24T12:09:55.055Z,79.48
2023-03-24T12:13:02.426Z,78.80
2023-03-24T12:16:05.616Z,78.73
2023-03-24T12:19:25.502Z,78.36
2023-03-24T12:22:34.681Z,78.72
2023-03-24T12:25:32.510Z,79.00
2023-03-24T12:28:11.695Z,79.24
2023-03-24T12:31:20.465Z,79.70
2023-03-24T12:34:19.492Z,79.33
2023-03-24T12:37:22.574Z,79.52
2023-03-24T12:40:22.014Z,78.65
2023-03-24T12:43:36.419Z,78.85
2023-03-24T12:46:48.334Z,78.87
2023-03-24T12:49:41.570Z,79.10
2023-03-24T12:53:06.697Z,78.77
2023-03-24T12:55:52.097Z,79.32
2023-03-24T12:58:30.923Z,79.23
2023-03-24T13:01:24.083Z,79.49
2023-03-24T13:04:35.132Z,79.27
2023-03-24T13:07:15.234Z,79.31
2023-03-24T13:10:04.961Z,79.85
2023-03-24T13:12:55.843Z,79.69
2023-03-24T13:15:46.902Z,79.40
2023-03-24T13:18:27.308Z,80.29
2023-03-24T13:21:08.876Z,79.75
2023-03-24T13:23:38.723Z,80.51
2023-03-24T13:26:34.012Z,80.12
2023-03-24T13:29:48.346Z,80.08
2023-03-24T13:32:32.687Z,79.83
2023-03-24T13:35:30.928Z,80.87
2023-03-24T13:38:18.341Z,81.15
2023-03-24T13:40:53.102Z,81.69
2023-03-24T13:43:31.019Z,81.38
2023-03-24T13:46:13.565Z,81.04
2023-03-24T13:48:54.754Z,81.16
2023-03-24T13:51:30.824Z,80.38
2023-03-24T13:54:20.442Z,81.00
2023-03-24T13:57:04.930Z,79.36
2023-03-24T14:00:18.446Z,77.41
2023-03-24T14:02:53.418Z,77.99
2023-03-24T14:05:23.961Z,78.79
2023-03-24T14:08:00.921Z,79.23
2023-03-24T14:10:42.661Z,79.17
2023-03-24T14:13:12.267Z,78.83
2023-03-24T14:15:45.359Z,78.86
2023-03-24T14:18:25.890Z,78.13
2023-03-24T14:20:56.547Z,76.96
2023-03-24T14:23:37.470Z,77.16
2023-03-24T14:26:20.608Z,77.59
2023-03-24T14:28:53.257Z,76.45
2023-03-24T14:31:24.253Z,76.45
2023-03-24T14:34:05.960Z,76.29
2023-03-24T14:36:40.617Z,76.47
2023-03-24T14:39:44.510Z,76.16
2023-03-24T14:42:33.844Z,77.44
2023-03-24T14:45:14.263Z,76.57
2023-03-24T14:47:42.178Z,77.02
2023-03-24T14:50:22.346Z,76.61
2023-03-24T14:53:02.246Z,76.78
2023-03-24T14:55:30.654Z,76.71
2023-03-24T14:58:11.014Z,76.86
2023-03-24T15:00:51.806Z,76.78
2023-03-24T15:03:53.498Z,77.25
2023-03-24T15:06:23.142Z,75.96
2023-03-24T15:08:59.011Z,75.37
2023-03-24T15:11:33.574Z,75.73
2023-03-24T15:14:04.800Z,74.88
2023-03-24T15:16:36.282Z,75.26
2023-03-24T15:19:24.077Z,74.83
2023-03-24T15:22:04.333Z,74.73
2023-03-24T15:24:36.452Z,74.56
2023-03-24T15:27:08.929Z,74.51
2023-03-24T15:29:42.807Z,74.97
2023-03-24T15:32:19.961Z,74.90
2023-03-24T15:34:51.857Z,75.75
2023-03-24T15:37:30.565Z,75.46
2023-03-24T15:40:12.575Z,75.72
2023-03-24T15:42:43.863Z,75.43
2023-03-24T15:45:28.466Z,75.69
2023-03-24T15:47:57.543Z,74.57
2023-03-24T15:50:40.863Z,74.60
2023-03-24T15:53:13.868Z,74.80
2023-03-24T15:55:43.639Z,74.63
2023-03-24T15:58:25.472Z,74.73
2023-03-24T16:00:57.105Z,74.79
2023-03-24T16:03:27.984Z,75.05
2023-03-24T16:05:57.032Z,75.13
2023-03-24T16:08:41.590Z,75.69
2023-03-24T16:11:14.400Z,75.49
2023-03-24T16:13:47.367Z,75.26
2023-03-24T16:16:14.325Z,75.03
2023-03-24T16:18:44.519Z,74.46
2023-03-24T16:21:24.089Z,74.85
2023-03-24T16:23:54.385Z,75.08
2023-03-24T16:26:32.670Z,75.09
2023-03-24T16:29:22.235Z,74.75
2023-03-24T16:31:52.983Z,74.18
2023-03-24T16:34:21.600Z,74.68
2023-03-24T16:36:51.155Z,73.80
2023-03-24T16:39:22.117Z,73.55
2023-03-24T16:41:49.355Z,74.21
2023-03-24T16:44:19.405Z,73.82
2023-03-24T16:46:48.337Z,73.91
2023-03-24T16:49:18.852Z,73.69
2023-03-24T16:51:47.118Z,73.55
2023-03-24T16:54:14.380Z,73.23
2023-03-24T16:56:42.023Z,73.14
2023-03-24T16:59:09.266Z,73.54
2023-03-24T17:01:44.204Z,73.39
2023-03-24T17:04:16.848Z,73.02
2023-03-24T17:06:48.937Z,73.27
2023-03-24T17:09:16.154Z,72.94
2023-03-24T17:11:50.190Z,73.10
2023-03-24T17:14:17.369Z,73.51
2023-03-24T17:16:46.502Z,73.33
2023-03-24T17:19:21.747Z,72.89
2023-03-24T17:22:02.042Z,72.63
2023-03-24T17:24:35.513Z,74.18
2023-03-24T17:27:03.402Z,73.40
2023-03-24T17:29:31.558Z,73.35
2023-03-24T17:31:58.557Z,73.87
2023-03-24T17:34:25.554Z,73.39
2023-03-24T17:36:52.555Z,73.51
2023-03-24T17:39:21.459Z,73.97
2023-03-24T17:41:48.846Z,73.34
2023-03-24T17:44:16.240Z,73.46
2023-03-24T17:46:43.208Z,73.17
2023-03-24T17:49:10.806Z,73.28
2023-03-24T17:51:37.731Z,73.17
2023-03-24T17:54:05.616Z,73.76
2023-03-24T17:56:32.812Z,73.71
2023-03-24T17:59:00.127Z,73.68
2023-03-24T18:01:29.236Z,73.09
2023-03-24T18:03:57.595Z,73.25
2023-03-24T18:06:24.725Z,74.18
2023-03-24T18:08:51.998Z,73.40
2023-03-24T18:11:19.247Z,73.40
2023-03-24T18:13:46.443Z,73.27
2023-03-24T18:16:21.313Z,73.43
2023-03-24T18:18:51.062Z,73.48
2023-03-24T18:21:19.315Z,73.93
2023-03-24T18:23:46.544Z,73.21
2023-03-24T18:26:16.842Z,73.80
2023-03-24T18:28:45.934Z,73.81
2023-03-24T18:31:17.778Z,73.00
2023-03-24T18:33:46.103Z,73.55
2023-03-24T18:36:21.066Z,73.33
2023-03-24T18:38:49.096Z,73.82
2023-03-24T18:41:18.174Z,73.30
2023-03-24T18:43:47.932Z,73.38
2023-03-24T18:46:16.038Z,73.61
2023-03-24T18:48:43.846Z,73.40
2023-03-24T18:51:11.722Z,73.13
2023-03-24T18:53:39.031Z,72.85
2023-03-24T18:56:07.037Z,73.30
2023-03-24T18:58:35.217Z,73.48
2023-03-24T19:01:11.197Z,72.84
2023-03-24T19:03:40.902Z,73.28
2023-03-24T19:06:10.970Z,73.19
2023-03-24T19:08:42.842Z,72.95
2023-03-24T19:11:11.387Z,72.86
2023-03-24T19:13:40.104Z,73.32
2023-03-24T19:16:08.968Z,73.23
2023-03-24T19:18:37.194Z,73.38
2023-03-24T19:21:04.787Z,73.17
2023-03-24T19:23:31.730Z,73.34
2023-03-24T19:25:59.135Z,73.99
2023-03-24T19:28:29.783Z,73.63
2023-03-24T19:30:59.344Z,73.97
2023-03-24T19:33:29.568Z,73.26
2023-03-24T19:35:58.397Z,73.45
2023-03-24T19:38:25.946Z,73.73
2023-03-24T19:40:54.067Z,73.91
2023-03-24T19:43:22.771Z,73.94
2023-03-24T19:45:51.083Z,73.73
2023-03-24T19:48:18.648Z,73.70
2023-03-24T19:50:46.631Z,73.78
2023-03-24T19:53:13.833Z,73.38
2023-03-24T19:55:41.015Z,73.57
2023-03-24T19:58:08.403Z,73.80
2023-03-24T20:00:35.914Z,73.89
2023-03-24T20:03:03.010Z,73.84
2023-03-24T20:05:30.305Z,73.49
2023-03-24T20:07:59.732Z,73.64
2023-03-24T20:10:27.980Z,74.04
2023-03-24T20:12:55.341Z,73.91
2023-03-24T20:15:22.612Z,73.25
2023-03-24T20:17:49.617Z,73.58
2023-03-24T20:20:16.716Z,73.85
2023-03-24T20:22:48.639Z,73.54
2023-03-24T20:25:18.782Z,73.53
2023-03-24T20:27:47.352Z,73.78
2023-03-24T20:30:20.012Z,73.75
2023-03-24T20:32:47.463Z,74.54
2023-03-24T20:35:14.688Z,74.44
2023-03-24T20:37:42.130Z,74.35
2023-03-24T20:40:10.261Z,74.11
2023-03-24T20:42:37.929Z,75.13
2023-03-24T20:45:06.977Z,75.86
2023-03-24T20:47:36.544Z,76.37
2023-03-24T20:50:05.855Z,76.98
2023-03-24T20:52:34.877Z,77.22
2023-03-24T20:55:05.460Z,77.48
2023-03-24T20:57:33.432Z,77.47
2023-03-24T21:00:00.746Z,78.12
2023-03-24T21:02:28.326Z,78.95
2023-03-24T21:04:55.527Z,79.13
2023-03-24T21:07:23.382Z,79.38
2023-03-24T21:09:50.409Z,78.78
2023-03-24T21:12:17.354Z,79.40
2023-03-24T21:14:46.622Z,79.49
2023-03-24T21:17:13.858Z,79.99
2023-03-24T21:19:46.636Z,80.15
2023-03-24T21:22:15.242Z,80.49
2023-03-24T21:24:42.570Z,80.95
2023-03-24T21:27:09.583Z,80.86
2023-03-24T21:29:36.585Z,80.89
2023-03-24T21:32:03.875Z,79.95
2023-03-24T21:34:31.417Z,80.25
2023-03-24T21:37:01.326Z,80.13
2023-03-24T21:39:28.618Z,80.51
2023-03-24T21:41:55.595Z,80.23
2023-03-24T21:44:23.227Z,80.06
2023-03-24T21:46:50.244Z,80.27
2023-03-24T21:49:18.781Z,80.00
2023-03-24T21:51:46.654Z,80.29
2023-03-24T21:54:14.692Z,80.25
2023-03-24T21:56:42.066Z,80.28
2023-03-24T21:59:10.964Z,81.09
2023-03-24T22:01:38.169Z,82.45
2023-03-24T22:04:07.301Z,82.86
2023-03-24T22:06:37.701Z,84.21
2023-03-24T22:09:06.746Z,83.67
2023-03-24T22:11:35.000Z,84.04
2023-03-24T22:14:02.291Z,85.23
2023-03-24T22:16:29.439Z,86.45
2023-03-24T22:18:57.090Z,86.73
2023-03-24T22:21:24.111Z,87.51
2023-03-24T22:23:51.442Z,88.29
2023-03-24T22:26:18.992Z,89.96
2023-03-24T22:28:46.446Z,89.01
2023-03-24T22:31:16.775Z,89.66
2023-03-24T22:33:44.519Z,86.78
2023-03-24T22:36:12.281Z,86.06
2023-03-24T22:38:40.026Z,84.76
2023-03-24T22:41:11.321Z,85.62
2023-03-24T22:43:41.835Z,85.86
2023-03-24T22:46:11.037Z,84.57
2023-03-24T22:48:39.191Z,86.98
2023-03-24T22:51:07.125Z,85.69
2023-03-24T22:53:36.023Z,84.82
2023-03-24T22:56:03.565Z,88.22
2023-03-24T22:58:30.784Z,88.15
2023-03-24T23:00:58.032Z,87.68
2023-03-24T23:03:25.527Z,87.27
2023-03-24T23:05:53.057Z,86.83
2023-03-24T23:08:20.730Z,86.81
2023-03-24T23:10:49.039Z,86.11
2023-03-24T23:13:19.980Z,87.75
2023-03-24T23:15:50.272Z,86.30
2023-03-24T23:18:18.244Z,87.30
2023-03-24T23:20:46.000Z,87.13
2023-03-24T23:23:13.624Z,87.19
2023-03-24T23:25:44.118Z,86.22
2023-03-24T23:28:13.101Z,86.43
2023-03-24T23:30:40.626Z,88.14
2023-03-24T23:33:08.091Z,87.28
2023-03-24T23:35:37.256Z,87.84
2023-03-24T23:38:05.340Z,88.11
2023-03-24T23:40:32.350Z,88.28
2023-03-24T23:42:59.708Z,87.21
2023-03-24T23:45:27.432Z,88.66
2023-03-24T23:47:54.765Z,89.07
2023-03-24T23:50:21.749Z,88.58
2023-03-24T23:52:48.792Z,88.48
2023-03-24T23:55:18.091Z,88.59
2023-03-24T23:57:49.064Z,90.52
